Lyon Bron, France

3:40 AM CEST on October 22, 2014 (GMT +0200)
Bron | Change Station
CLOSE
Current Station
Airport
Location: Lyon Bron,
Elevation: 659 ft
Nearby Weather Stations

Elev 659 ft 45.73 °N, 4.94 °E | Updated 10 minutes ago

Clear
Clear
52 °F
Feels Like 52 °F
N
14
Wind Variable Wind from NW

Today
High -- | Low -- °F
--% Chance of Precip.
Yesterday
High -- | Low -- °F
Precip. -- in
8:05 AM 6:42 PM
Waning Crescent, 3% visible
Pressure 30.24 in
Visibility 6.2 miles
Clouds
Dew Point 39 °F
Humidity 62%
Rainfall 0.00 in
Snow Depth Not available.
UV Not available.
Pollen Not available.
Air Quality Not available.
Flu Activity Not available.
METAR LFLY 220130Z AUTO 32012KT 9999 NSC 11/04 Q1024

More Conditions Fewer Conditions

Pressure 30.24 in
Visibility 6.2 miles
Clouds
Dew Point 39 °F
Humidity 62%
Rainfall 0.00 in
Snow Depth Not available.
UV Not available.
Pollen Not available.
Air Quality Not available.
Flu Activity Not available.
METAR LFLY 220130Z AUTO 32012KT 9999 NSC 11/04 Q1024

More Conditions Fewer Conditions

10-Day Weather Forecast

Almanac

Astronomy

Oct. 22, 2014 Rise Set
Actual Time 8:05 AM CEST 6:42 PM CEST
Civil Twilight 7:35 AM CEST 7:13 PM CEST
Nautical Twilight 7:00 AM CEST 7:47 PM CEST
Astronomical Twilight 6:26 AM CEST 8:22 PM CEST
Moon 6:27 AM CEST 6:03 PM CEST
Length of Visible Light 11h 37m
Length of Day
10h 36m
Tomorrow will be 3m 2s shorter.
Waning Crescent, 3% of the Moon is Illuminated
Oct 21
Waning Crescent
Oct 23
New
Oct 30
First Quarter
Nov 6
Full
Nov 14
Last Quarter

Yesterday's Extremes

Country Highs Country Lows

Community

WunderPhotos

Upload Photos

1,763,843 photos uploaded!

Nearby

Snow Depth

Not available.

Earthquake Activity

City Distance Mag. Time & Date
No recent earthquake activity has been reported nearby.
Minimum magnitude displayed is 2.5.

Coastal Water Temperatures

Place Temperature
No Stations Reporting

Nearby Weather Stations